Latest Weather Observations for South Johnstone

IDQ60801

Issued at 2:35 pm EST Monday 24 November 2014 (issued every 30 minutes, with the page automatically refreshed every 10 minutes)

About weather observations | Map of weather stations | Latest weather observations for QLD | Other Formats
Station Details ID: 032037 Name: SOUTH JOHNSTONE EXP STN Lat: -17.61 Lon: 146.00 Height: 18.3 m
Data from the previous 72 hours. | See also: Recent months at South Johnstone
Date/Time
EST
Temp
°C
App
Temp
°C
Dew
Point
Rel
Hum
%
Delta-T
°C
Wind Press
QNH
hPa
Press
MSL
hPa
Rain
since 9 am
mm
Dir
 
Spd
km/h
Gust
km/h
Spd
kts
Gust
kts
24/02:30pm 31.2 31.6 19.8 50 7.5 ESE 17 28 9 15 1011.4 - 0.0
24/02:00pm 30.9 31.6 19.6 51 7.4 E 15 30 8 16 1011.7 - 0.0
24/01:30pm 30.4 31.2 20.6 55 6.5 E 17 24 9 13 1012.0 - 0.0
24/01:00pm 30.5 30.8 20.4 54 6.7 E 19 30 10 16 1012.3 - 0.0
24/12:30pm 30.8 31.8 20.2 53 7.0 E 15 24 8 13 1012.5 - 0.0
24/12:00pm 30.7 32.0 20.1 53 7.0 E 13 24 7 13 1012.8 1012.7 0.0
24/11:30am 31.1 32.1 20.2 52 7.2 ESE 15 26 8 14 1013.2 - 0.0
24/11:00am 30.7 32.7 20.8 55 6.6 E 11 17 6 9 1013.4 - 0.0
24/10:30am 30.9 32.3 21.0 55 6.6 ENE 15 24 8 13 1013.8 - 0.0
24/10:00am 29.7 31.7 22.2 64 5.1 ENE 15 24 8 13 1014.0 - 0.0
24/09:30am 29.1 31.8 22.1 66 4.7 E 11 19 6 10 1014.1 - 0.0
24/09:00am 27.7 31.4 23.3 77 3.0 SE 9 15 5 8 1014.2 1014.1 0.6
24/08:30am 26.8 30.9 23.9 84 2.0 SSE 9 11 5 6 1014.2 - 0.6
24/08:00am 26.0 31.2 23.5 86 1.7 W 2 6 1 3 1013.9 - 0.6
24/07:30am 24.8 28.4 23.0 90 1.2 SW 9 15 5 8 1013.6 - 0.6
24/07:00am 23.3 27.9 22.4 95 0.6 WSW 2 7 1 4 1013.5 - 0.4
24/06:30am 22.8 27.5 22.0 95 0.5 CALM 0 0 0 0 1013.1 - 0.4
24/06:00am 22.8 27.5 22.0 95 0.5 CALM 0 0 0 0 1012.7 1012.6 0.4
24/05:30am 22.5 25.5 22.0 97 0.3 WSW 9 13 5 7 1012.6 - 0.4
24/05:00am 22.8 27.3 22.3 97 0.3 W 2 9 1 5 1012.5 - 0.4
24/04:30am 22.4 26.3 21.8 96 0.4 W 4 9 2 5 1012.5 - 0.4
24/04:00am 22.6 26.2 22.0 96 0.4 W 6 9 3 5 1012.6 - 0.4
24/03:30am 22.8 26.3 22.2 96 0.4 WSW 7 11 4 6 1012.7 - 0.4
24/03:00am 22.9 26.4 22.1 95 0.5 WSW 7 9 4 5 1012.9 1012.8 0.4
24/02:30am 23.0 26.1 22.2 95 0.5 WSW 9 13 5 7 1013.1 - 0.4
24/02:00am 23.1 26.7 22.4 96 0.5 WSW 7 11 4 6 1013.0 - 0.4
24/01:30am 23.0 27.2 22.4 96 0.4 W 4 9 2 5 1013.2 - 0.4
24/01:00am 23.0 26.7 22.2 95 0.5 W 6 9 3 5 1013.4 - 0.4
24/12:30am 23.4 27.1 22.2 93 0.8 WSW 6 9 3 5 1014.1 - 0.4
24/12:00am 23.4 26.9 21.9 91 1.0 W 6 9 3 5 1014.5 1014.4 0.0
 
Date/Time
EST
Temp
°C
App
Temp
°C
Dew
Point
Rel
Hum
%
Delta-T
°C
Wind Press
QNH
hPa
Press
MSL
hPa
Rain
since 9 am
mm
Dir
 
Spd
km/h
Gust
km/h
Spd
kts
Gust
kts
23/11:30pm 23.8 28.7 22.3 91 1.0 CALM 0 0 0 0 1014.7 - 0.0
23/11:00pm 23.9 28.7 22.1 90 1.2 CALM 0 0 0 0 1014.8 - 0.0
23/10:30pm 24.0 27.7 22.2 90 1.2 W 6 9 3 5 1014.9 - 0.0
23/10:00pm 24.3 29.3 22.5 90 1.2 CALM 0 0 0 0 1014.9 - 0.0
23/09:30pm 24.5 29.6 22.7 90 1.2 CALM 0 0 0 0 1014.5 - 0.0
23/09:00pm 25.0 30.0 22.5 86 1.7 CALM 0 0 0 0 1014.3 1014.2 0.0
23/08:30pm 25.4 29.9 22.3 83 2.1 SSE 2 7 1 4 1014.1 - 0.0
23/08:00pm 25.6 30.1 22.2 81 2.3 SSE 2 6 1 3 1013.8 - 0.0
23/07:30pm 25.5 29.0 22.1 81 2.3 SSE 7 9 4 5 1013.4 - 0.0
23/07:00pm 26.1 29.4 21.9 77 2.8 ESE 7 13 4 7 1013.1 - 0.0
23/06:30pm 26.8 29.3 21.7 73 3.4 E 11 15 6 8 1012.8 - 0.0
23/06:00pm 27.5 29.8 21.3 69 4.1 E 11 15 6 8 1012.8 1012.7 0.0
23/05:30pm 28.3 29.6 20.9 64 4.9 E 15 24 8 13 1012.3 - 0.0
23/05:00pm 29.6 31.3 20.9 59 5.8 E 13 20 7 11 1012.2 - 0.0
23/04:30pm 30.0 31.0 20.3 56 6.4 ESE 15 20 8 11 1012.1 - 0.0
23/04:00pm 29.7 30.1 20.7 58 6.0 ESE 19 24 10 13 1012.0 - 0.0
23/03:30pm 30.9 32.3 21.0 55 6.6 ESE 15 22 8 12 1012.1 - 0.0
23/03:00pm 30.6 31.8 20.0 53 7.0 E 13 28 7 15 1012.4 1012.3 0.0
23/02:30pm 30.0 30.4 20.7 57 6.2 E 19 32 10 17 1012.6 - 0.0
23/02:00pm 31.6 33.0 20.3 51 7.5 E 13 28 7 15 1012.9 - 0.0
23/01:30pm 31.7 31.9 20.2 50 7.6 ESE 19 30 10 16 1013.3 - 0.0
23/01:00pm 31.9 33.1 19.0 46 8.4 ESE 11 19 6 10 1013.5 - 0.0
23/12:30pm 31.6 32.5 20.1 50 7.6 E 15 26 8 14 1013.8 - 0.0
23/12:00pm 31.4 32.3 20.1 51 7.5 E 15 24 8 13 1014.1 1014.0 0.0
23/11:30am 30.2 30.6 19.1 51 7.2 E 15 26 8 14 1014.6 - 0.0
23/11:00am 30.1 31.5 20.4 56 6.4 ENE 13 22 7 12 1015.0 - 0.0
23/10:30am 30.7 35.1 22.1 60 5.8 N 2 7 1 4 1015.2 - 0.0
23/10:00am 29.4 31.9 21.0 60 5.6 NNE 9 15 5 8 1015.2 - 0.0
23/09:30am 28.6 31.3 20.7 62 5.2 E 7 11 4 6 1015.4 - 0.0
23/09:00am 28.7 31.7 20.9 62 5.2 ESE 6 9 3 5 1015.3 1015.2 0.0
23/08:30am 28.2 31.2 21.3 66 4.6 E 7 15 4 8 1015.4 - 0.0
23/08:00am 27.5 32.2 22.6 74 3.3 WSW 2 7 1 4 1015.2 - 0.0
23/07:30am 25.5 28.7 21.7 79 2.5 SW 7 11 4 6 1015.0 - 0.0
23/07:00am 23.4 26.1 21.4 88 1.3 WSW 9 13 5 7 1014.8 - 0.0
23/06:30am 21.8 25.5 20.7 93 0.7 WNW 2 7 1 4 1014.5 - 0.0
23/06:00am 21.4 24.6 20.6 95 0.5 W 4 9 2 5 1013.9 1013.8 0.0
23/05:30am 20.8 24.2 20.2 96 0.4 WSW 2 6 1 3 1013.5 - 0.0
23/05:00am 21.5 24.6 21.0 97 0.3 W 6 9 3 5 1013.3 - 0.0
23/04:30am 21.5 25.3 20.9 96 0.4 W 2 7 1 4 1013.3 - 0.0
23/04:00am 21.5 24.5 20.9 96 0.4 W 6 7 3 4 1013.1 - 0.0
23/03:30am 21.7 25.9 20.9 95 0.5 CALM 0 0 0 0 1012.9 - 0.0
23/03:00am 21.9 24.8 21.1 95 0.5 WSW 7 11 4 6 1013.0 1012.9 0.0
23/02:30am 22.1 25.3 21.2 95 0.6 WSW 6 11 3 6 1013.0 - 0.0
23/02:00am 22.2 25.8 21.3 95 0.6 W 4 7 2 4 1013.0 - 0.0
23/01:30am 22.3 24.9 21.2 93 0.7 WSW 9 13 5 7 1013.1 - 0.0
23/01:00am 22.4 26.0 21.3 93 0.7 W 4 9 2 5 1013.3 - 0.0
23/12:30am 22.9 26.0 21.5 92 0.9 W 7 11 4 6 1014.0 - 0.0
23/12:00am 23.2 27.0 21.7 91 1.0 W 4 7 2 4 1014.4 1014.3 0.0
 
Date/Time
EST
Temp
°C
App
Temp
°C
Dew
Point
Rel
Hum
%
Delta-T
°C
Wind Press
QNH
hPa
Press
MSL
hPa
Rain
since 9 am
mm
Dir
 
Spd
km/h
Gust
km/h
Spd
kts
Gust
kts
22/11:30pm 23.3 26.6 21.5 90 1.2 W 6 9 3 5 1014.6 - 0.0
22/11:00pm 22.9 26.6 21.4 91 1.0 WSW 4 9 2 5 1014.7 - 0.0
22/10:30pm 23.3 26.4 21.5 90 1.2 WSW 7 9 4 5 1014.8 - 0.0
22/10:00pm 23.4 26.1 21.4 88 1.3 WSW 9 11 5 6 1014.7 - 0.0
22/09:30pm 23.4 27.1 21.4 88 1.3 WSW 4 11 2 6 1014.3 - 0.0
22/09:00pm 24.0 26.7 21.3 85 1.8 WSW 9 11 5 6 1014.0 1013.9 0.0
22/08:30pm 24.2 28.6 21.3 84 1.9 CALM 0 0 0 0 1013.7 - 0.0
22/08:00pm 25.1 29.4 21.2 79 2.6 CALM 0 0 0 0 1013.6 - 0.0
22/07:30pm 25.1 29.5 21.3 79 2.5 CALM 0 0 0 0 1013.4 - 0.0
22/07:00pm 25.8 30.2 21.4 76 2.9 CALM 0 0 0 0 1013.0 - 0.0
22/06:30pm 26.7 29.4 21.3 72 3.6 NE 9 13 5 7 1012.7 - 0.0
22/06:00pm 27.3 29.8 21.8 72 3.7 NE 11 19 6 10 1012.5 1012.4 0.0
22/05:30pm 27.9 29.9 21.6 68 4.2 ENE 13 19 7 10 1012.2 - 0.0
22/05:00pm 28.5 30.5 21.6 66 4.6 E 13 19 7 10 1012.0 - 0.0
22/04:30pm 29.0 30.7 20.9 61 5.4 ENE 13 20 7 11 1011.7 - 0.0
22/04:00pm 29.4 30.1 20.5 58 5.9 NE 17 26 9 14 1011.8 - 0.0
22/03:30pm 30.6 31.3 20.5 54 6.7 ENE 17 24 9 13 1011.7 - 0.0
22/03:00pm 30.9 31.9 20.3 53 7.0 E 15 24 8 13 1011.8 1011.7 0.0
22/02:30pm 31.1 31.9 20.6 53 7.0 E 17 24 9 13 1012.0 - 0.0
22/02:00pm 30.7 31.6 20.1 53 7.0 NE 15 24 8 13 1012.3 - 0.0
22/01:30pm 31.5 32.7 19.8 49 7.7 E 13 20 7 11 1012.6 - 0.0
22/01:00pm 31.6 32.8 19.9 50 7.7 E 13 24 7 13 1012.9 - 0.0
22/12:30pm 30.6 31.1 19.3 51 7.4 ENE 15 26 8 14 1013.3 - 0.0
22/12:00pm 31.2 32.0 19.8 50 7.5 E 15 24 8 13 1013.5 1013.4 0.0
22/11:30am 31.2 31.3 20.0 51 7.4 E 19 35 10 19 1013.7 - 0.0
22/11:00am 31.6 34.3 20.3 51 7.5 N 6 19 3 10 1013.9 - 0.0
22/10:30am 30.3 32.9 20.0 54 6.8 ENE 6 11 3 6 1013.9 - 0.0
22/10:00am 29.2 31.8 20.1 58 6.0 W 6 11 3 6 1014.3 - 0.0
22/09:30am 29.1 33.4 21.1 62 5.3 CALM 0 6 0 3 1014.5 - 0.0
22/09:00am 29.1 33.2 21.5 63 5.1 N 2 7 1 4 1014.6 1014.5 0.0
22/08:30am 28.0 31.0 20.9 65 4.7 SW 6 9 3 5 1014.7 - 0.0
22/08:00am 26.6 29.6 21.2 72 3.6 SW 7 9 4 5 1014.8 - 0.0
22/07:30am 25.0 28.6 22.0 83 2.0 WSW 6 9 3 5 1014.6 - 0.0
22/07:00am 22.3 25.9 20.6 90 1.1 W 2 9 1 5 1014.6 - 0.0
22/06:30am 21.7 24.7 20.1 91 1.0 W 4 7 2 4 1014.3 - 0.0
22/06:00am 20.6 24.2 19.7 95 0.6 CALM 0 7 0 4 1013.9 1013.8 0.0
22/05:30am 20.3 23.5 19.7 96 0.4 W 2 7 1 4 1013.7 - 0.0
22/05:00am 20.6 24.3 20.0 96 0.4 CALM 0 0 0 0 1013.2 - 0.0
22/04:30am 20.7 24.5 20.1 96 0.4 CALM 0 0 0 0 1013.1 - 0.0
22/04:00am 20.8 23.4 20.0 95 0.5 W 6 11 3 6 1012.8 - 0.0
22/03:30am 20.7 22.4 20.1 96 0.4 WSW 11 13 6 7 1012.7 - 0.0
22/03:00am 20.9 23.0 20.1 95 0.5 WSW 9 13 5 7 1012.8 1012.7 0.0
22/02:30am 21.0 23.5 20.2 95 0.5 W 7 9 4 5 1012.5 - 0.0
22/02:00am 21.3 23.9 20.5 95 0.5 WNW 7 11 4 6 1012.7 - 0.0
22/01:30am 21.5 23.8 20.6 95 0.6 WSW 9 11 5 6 1013.0 - 0.0
22/01:00am 21.8 24.5 20.7 93 0.7 WNW 7 9 4 5 1013.3 - 0.0
22/12:30am 21.8 24.1 20.7 93 0.7 WSW 9 13 5 7 1013.6 - 0.0
22/12:00am 22.1 24.2 20.9 93 0.8 WSW 11 13 6 7 1014.0 1013.9 0.0
 
Date/Time
EST
Temp
°C
App
Temp
°C
Dew
Point
Rel
Hum
%
Delta-T
°C
Wind Press
QNH
hPa
Press
MSL
hPa
Rain
since 9 am
mm
Dir
 
Spd
km/h
Gust
km/h
Spd
kts
Gust
kts
21/11:30pm 22.3 25.3 20.9 92 0.9 W 6 11 3 6 1014.1 - 0.0
21/11:00pm 22.5 25.6 21.0 91 1.0 WSW 6 13 3 7 1014.3 - 0.0
21/10:30pm 22.9 25.8 21.1 89 1.2 WSW 7 9 4 5 1014.6 - 0.0
21/10:00pm 23.1 27.1 21.3 90 1.2 WSW 2 6 1 3 1014.5 - 0.0
21/09:30pm 23.2 27.7 21.5 90 1.1 CALM 0 0 0 0 1014.3 - 0.0
21/09:00pm 23.7 28.1 21.4 87 1.5 CALM 0 0 0 0 1014.0 1013.9 0.0
21/08:30pm 24.2 28.2 20.5 80 2.4 CALM 0 0 0 0 1013.6 - 0.0
21/08:00pm 24.7 27.5 20.4 77 2.8 SSE 6 7 3 4 1013.3 - 0.0
21/07:30pm 24.8 27.7 20.7 78 2.7 SE 6 7 3 4 1012.9 - 0.0
21/07:00pm 25.5 28.7 20.6 74 3.2 ENE 4 7 2 4 1012.4 - 0.0
21/06:30pm 26.3 28.1 20.3 69 3.9 ENE 11 15 6 8 1012.0 - 0.0
21/06:00pm 26.9 28.2 20.2 66 4.4 NE 13 20 7 11 1011.6 1011.5 0.0
21/05:30pm 27.8 29.3 19.7 61 5.3 ENE 11 19 6 10 1011.5 - 0.0
21/05:00pm 28.3 29.3 20.2 61 5.3 NE 15 22 8 12 1011.4 - 0.0
21/04:30pm 29.4 30.8 20.3 58 6.0 E 13 22 7 12 1011.4 - 0.0
21/04:00pm 30.1 31.5 20.4 56 6.4 E 13 19 7 10 1011.6 - 0.0
21/03:30pm 30.5 31.9 20.4 54 6.7 E 13 20 7 11 1011.7 - 0.0
21/03:00pm 29.9 30.6 20.4 56 6.3 ESE 17 24 9 13 1011.9 1011.8 0.0

Other Formats:

Comma delimited format used in spreadsheet applications
http://www.bom.gov.au/fwo/IDQ60801/IDQ60801.95292.axf

JavaScript Object Notation format (JSON) in row-major order
http://www.bom.gov.au/fwo/IDQ60801/IDQ60801.95292.json